Pierre Regional Airport Pierre US
ICAO: KPIR
IATA: PIR
Category: Medium
Scheduled Services: Yes

Elevation: 1744 ft
TransAlt. 18000 ft.

Airport Communications:
ASOS:119.025
MINNEAPOLIS CNTR:125.1
CTAF:122.7
HURON RDO:122.2
UNICOM:122.95

KPIR Zoom In..

Runways:

(A) RW 07 length 6881 ft width 150 ft
---- / hdg 69

(B) RW 13 length 6900 ft width 100 ft
---- / hdg 133

(C) RW 25 length 6881 ft width 150 ft
---- / hdg 249

(D) RW 31 length 6900 ft width 100 ft
ILS 111.90 / hdg 313

Location; KPIR
Day. 04 / Time. 12.53 Zulu
* Altimeter: 30.03
* Temperature: -02° c. -28.4°f.
* Wind from: 250° Speed 04 kn.
Dewpoint: -08° c.
Visibility: 10 Statute Miles.
Clouds: Clear (automated report).

KPIR 041253Z AUTO 25004KT 10SM CLR M02/M08 A3003 RMK AO2 SLP186 T10221078 $

Going to: --> -->


Wind From 250°
Speed 04 kn.

 
 
jpsmedia worldairports.se 2020   terms of use